sensor_id;sensor_type;location;lat;lon;timestamp;P1;durP1;ratioP1;P2;durP2;ratioP2
69386;SDS011;56575;48.942;8.404;2022-11-25T00:01:06;10.73;;;3.53;;
69386;SDS011;56575;48.942;8.404;2022-11-25T00:03:33;5.47;;;2.20;;
69386;SDS011;56575;48.942;8.404;2022-11-25T00:06:08;2.80;;;1.60;;
69386;SDS011;56575;48.942;8.404;2022-11-25T00:08:38;4.63;;;1.70;;
69386;SDS011;56575;48.942;8.404;2022-11-25T00:11:04;6.68;;;1.60;;
69386;SDS011;56575;48.942;8.404;2022-11-25T00:13:30;5.33;;;1.50;;
69386;SDS011;56575;48.942;8.404;2022-11-25T00:15:59;4.90;;;1.50;;
69386;SDS011;56575;48.942;8.404;2022-11-25T00:18:26;5.57;;;1.55;;
69386;SDS011;56575;48.942;8.404;2022-11-25T00:20:52;7.03;;;1.70;;
69386;SDS011;56575;48.942;8.404;2022-11-25T00:23:17;5.23;;;1.37;;
69386;SDS011;56575;48.942;8.404;2022-11-25T00:25:42;4.83;;;1.27;;
69386;SDS011;56575;48.942;8.404;2022-11-25T00:28:08;5.03;;;1.20;;
69386;SDS011;56575;48.942;8.404;2022-11-25T00:30:33;5.00;;;1.40;;
69386;SDS011;56575;48.942;8.404;2022-11-25T00:32:58;7.40;;;1.33;;
69386;SDS011;56575;48.942;8.404;2022-11-25T00:35:24;3.95;;;1.20;;
69386;SDS011;56575;48.942;8.404;2022-11-25T00:37:49;4.77;;;1.73;;
69386;SDS011;56575;48.942;8.404;2022-11-25T00:40:14;4.77;;;1.43;;
69386;SDS011;56575;48.942;8.404;2022-11-25T00:42:40;3.17;;;1.13;;
69386;SDS011;56575;48.942;8.404;2022-11-25T00:45:23;5.93;;;1.30;;
69386;SDS011;56575;48.942;8.404;2022-11-25T00:47:49;4.90;;;1.17;;
69386;SDS011;56575;48.942;8.404;2022-11-25T00:50:17;3.20;;;1.17;;
69386;SDS011;56575;48.942;8.404;2022-11-25T00:52:42;4.00;;;0.87;;
69386;SDS011;56575;48.942;8.404;2022-11-25T00:55:08;5.10;;;1.10;;
69386;SDS011;56575;48.942;8.404;2022-11-25T00:57:34;2.90;;;1.15;;
69386;SDS011;56575;48.942;8.404;2022-11-25T00:59:59;2.90;;;1.00;;
69386;SDS011;56575;48.942;8.404;2022-11-25T01:02:25;5.53;;;1.10;;
69386;SDS011;56575;48.942;8.404;2022-11-25T01:04:50;6.32;;;1.45;;
69386;SDS011;56575;48.942;8.404;2022-11-25T01:07:16;2.83;;;0.80;;
69386;SDS011;56575;48.942;8.404;2022-11-25T01:09:41;2.53;;;1.10;;
69386;SDS011;56575;48.942;8.404;2022-11-25T01:12:07;4.93;;;1.23;;
69386;SDS011;56575;48.942;8.404;2022-11-25T01:14:32;5.17;;;1.27;;
69386;SDS011;56575;48.942;8.404;2022-11-25T01:16:58;3.10;;;0.85;;
69386;SDS011;56575;48.942;8.404;2022-11-25T01:19:23;3.83;;;0.90;;
69386;SDS011;56575;48.942;8.404;2022-11-25T01:21:49;3.67;;;0.80;;
69386;SDS011;56575;48.942;8.404;2022-11-25T01:24:14;3.57;;;1.00;;
69386;SDS011;56575;48.942;8.404;2022-11-25T01:26:41;4.18;;;1.00;;
69386;SDS011;56575;48.942;8.404;2022-11-25T01:29:11;5.13;;;1.15;;
69386;SDS011;56575;48.942;8.404;2022-11-25T01:31:39;4.22;;;1.23;;
69386;SDS011;56575;48.942;8.404;2022-11-25T01:34:26;3.87;;;0.97;;
69386;SDS011;56575;48.942;8.404;2022-11-25T01:36:51;4.27;;;0.93;;
69386;SDS011;56575;48.942;8.404;2022-11-25T01:39:17;4.28;;;0.90;;
69386;SDS011;56575;48.942;8.404;2022-11-25T01:41:44;4.63;;;1.47;;
69386;SDS011;56575;48.942;8.404;2022-11-25T01:44:15;4.47;;;1.05;;
69386;SDS011;56575;48.942;8.404;2022-11-25T01:46:54;4.10;;;1.50;;
69386;SDS011;56575;48.942;8.404;2022-11-25T01:49:29;3.85;;;1.08;;
69386;SDS011;56575;48.942;8.404;2022-11-25T01:52:08;4.93;;;1.08;;
69386;SDS011;56575;48.942;8.404;2022-11-25T01:54:49;2.70;;;0.97;;
69386;SDS011;56575;48.942;8.404;2022-11-25T01:57:21;4.70;;;1.20;;
69386;SDS011;56575;48.942;8.404;2022-11-25T01:59:51;5.00;;;1.10;;
69386;SDS011;56575;48.942;8.404;2022-11-25T02:02:20;3.10;;;0.90;;
69386;SDS011;56575;48.942;8.404;2022-11-25T02:04:46;3.95;;;1.10;;
69386;SDS011;56575;48.942;8.404;2022-11-25T02:07:14;4.33;;;1.30;;
69386;SDS011;56575;48.942;8.404;2022-11-25T02:09:45;2.28;;;0.82;;
69386;SDS011;56575;48.942;8.404;2022-11-25T02:12:11;6.78;;;1.10;;
69386;SDS011;56575;48.942;8.404;2022-11-25T02:14:39;3.53;;;1.00;;
69386;SDS011;56575;48.942;8.404;2022-11-25T02:17:05;6.97;;;1.07;;
69386;SDS011;56575;48.942;8.404;2022-11-25T02:19:35;4.65;;;0.80;;
69386;SDS011;56575;48.942;8.404;2022-11-25T02:22:20;3.40;;;0.80;;
69386;SDS011;56575;48.942;8.404;2022-11-25T02:24:52;5.13;;;1.05;;
69386;SDS011;56575;48.942;8.404;2022-11-25T02:27:22;3.13;;;0.70;;
69386;SDS011;56575;48.942;8.404;2022-11-25T02:29:47;5.40;;;0.93;;
69386;SDS011;56575;48.942;8.404;2022-11-25T02:32:14;3.90;;;1.08;;
69386;SDS011;56575;48.942;8.404;2022-11-25T02:34:46;5.60;;;1.00;;
69386;SDS011;56575;48.942;8.404;2022-11-25T02:37:12;4.20;;;0.80;;
69386;SDS011;56575;48.942;8.404;2022-11-25T02:39:38;5.97;;;1.10;;
69386;SDS011;56575;48.942;8.404;2022-11-25T02:42:04;4.03;;;1.10;;
69386;SDS011;56575;48.942;8.404;2022-11-25T02:44:30;2.65;;;0.90;;
69386;SDS011;56575;48.942;8.404;2022-11-25T02:46:56;2.90;;;0.90;;
69386;SDS011;56575;48.942;8.404;2022-11-25T02:49:21;5.77;;;1.10;;
69386;SDS011;56575;48.942;8.404;2022-11-25T02:51:47;4.37;;;0.87;;
69386;SDS011;56575;48.942;8.404;2022-11-25T02:54:13;4.50;;;0.82;;
69386;SDS011;56575;48.942;8.404;2022-11-25T02:56:39;2.70;;;0.97;;
69386;SDS011;56575;48.942;8.404;2022-11-25T02:59:05;3.78;;;0.90;;
69386;SDS011;56575;48.942;8.404;2022-11-25T03:01:31;2.50;;;0.80;;
69386;SDS011;56575;48.942;8.404;2022-11-25T03:03:59;3.67;;;1.00;;
69386;SDS011;56575;48.942;8.404;2022-11-25T03:06:25;3.20;;;0.85;;
69386;SDS011;56575;48.942;8.404;2022-11-25T03:08:51;3.13;;;0.70;;
69386;SDS011;56575;48.942;8.404;2022-11-25T03:11:16;3.47;;;0.70;;
69386;SDS011;56575;48.942;8.404;2022-11-25T03:13:41;4.00;;;1.10;;
69386;SDS011;56575;48.942;8.404;2022-11-25T03:16:07;4.18;;;0.80;;
69386;SDS011;56575;48.942;8.404;2022-11-25T03:18:32;4.93;;;0.70;;
69386;SDS011;56575;48.942;8.404;2022-11-25T03:20:58;5.43;;;0.77;;
69386;SDS011;56575;48.942;8.404;2022-11-25T03:23:23;2.00;;;0.50;;
69386;SDS011;56575;48.942;8.404;2022-11-25T03:25:49;4.28;;;0.65;;
69386;SDS011;56575;48.942;8.404;2022-11-25T03:28:14;3.30;;;0.70;;
69386;SDS011;56575;48.942;8.404;2022-11-25T03:30:40;3.40;;;0.60;;
69386;SDS011;56575;48.942;8.404;2022-11-25T03:33:05;4.63;;;0.77;;
69386;SDS011;56575;48.942;8.404;2022-11-25T03:35:30;3.50;;;0.70;;
69386;SDS011;56575;48.942;8.404;2022-11-25T03:37:56;3.30;;;0.63;;
69386;SDS011;56575;48.942;8.404;2022-11-25T03:40:21;4.60;;;0.80;;
69386;SDS011;56575;48.942;8.404;2022-11-25T03:42:47;2.08;;;0.80;;
69386;SDS011;56575;48.942;8.404;2022-11-25T03:45:13;2.20;;;0.70;;
69386;SDS011;56575;48.942;8.404;2022-11-25T03:47:42;3.50;;;0.80;;
69386;SDS011;56575;48.942;8.404;2022-11-25T03:50:09;2.70;;;0.60;;
69386;SDS011;56575;48.942;8.404;2022-11-25T03:52:36;3.37;;;0.80;;
69386;SDS011;56575;48.942;8.404;2022-11-25T03:55:02;3.72;;;0.93;;
69386;SDS011;56575;48.942;8.404;2022-11-25T03:57:28;2.58;;;0.60;;
69386;SDS011;56575;48.942;8.404;2022-11-25T03:59:53;2.83;;;0.40;;
69386;SDS011;56575;48.942;8.404;2022-11-25T04:02:19;2.10;;;0.60;;
69386;SDS011;56575;48.942;8.404;2022-11-25T04:04:44;24.47;;;9.13;;
69386;SDS011;56575;48.942;8.404;2022-11-25T04:07:10;19.03;;;7.70;;
69386;SDS011;56575;48.942;8.404;2022-11-25T04:09:35;5.50;;;3.10;;
69386;SDS011;56575;48.942;8.404;2022-11-25T04:12:00;6.07;;;1.77;;
69386;SDS011;56575;48.942;8.404;2022-11-25T04:14:44;3.25;;;1.67;;
69386;SDS011;56575;48.942;8.404;2022-11-25T04:17:10;4.20;;;1.20;;
69386;SDS011;56575;48.942;8.404;2022-11-25T04:19:35;2.70;;;0.97;;
69386;SDS011;56575;48.942;8.404;2022-11-25T04:22:00;2.97;;;0.90;;
69386;SDS011;56575;48.942;8.404;2022-11-25T04:24:26;4.53;;;0.90;;
69386;SDS011;56575;48.942;8.404;2022-11-25T04:26:52;4.95;;;0.85;;
69386;SDS011;56575;48.942;8.404;2022-11-25T04:29:17;2.27;;;0.87;;
69386;SDS011;56575;48.942;8.404;2022-11-25T04:31:43;5.70;;;1.27;;
69386;SDS011;56575;48.942;8.404;2022-11-25T04:34:08;3.43;;;0.57;;
69386;SDS011;56575;48.942;8.404;2022-11-25T04:36:34;3.15;;;0.80;;
69386;SDS011;56575;48.942;8.404;2022-11-25T04:39:00;3.65;;;1.00;;
69386;SDS011;56575;48.942;8.404;2022-11-25T04:41:25;4.47;;;0.90;;
69386;SDS011;56575;48.942;8.404;2022-11-25T04:43:51;3.07;;;1.60;;
69386;SDS011;56575;48.942;8.404;2022-11-25T04:46:16;4.27;;;0.90;;
69386;SDS011;56575;48.942;8.404;2022-11-25T04:48:54;3.72;;;0.90;;
69386;SDS011;56575;48.942;8.404;2022-11-25T04:51:19;4.33;;;0.90;;
69386;SDS011;56575;48.942;8.404;2022-11-25T04:53:44;3.72;;;0.50;;
69386;SDS011;56575;48.942;8.404;2022-11-25T04:56:14;2.67;;;0.90;;
69386;SDS011;56575;48.942;8.404;2022-11-25T04:58:41;6.43;;;1.00;;
69386;SDS011;56575;48.942;8.404;2022-11-25T05:01:25;2.92;;;0.60;;
69386;SDS011;56575;48.942;8.404;2022-11-25T05:03:50;3.20;;;0.80;;
69386;SDS011;56575;48.942;8.404;2022-11-25T05:06:16;4.88;;;0.73;;
69386;SDS011;56575;48.942;8.404;2022-11-25T05:08:41;2.53;;;0.80;;
69386;SDS011;56575;48.942;8.404;2022-11-25T05:11:07;3.50;;;0.60;;
69386;SDS011;56575;48.942;8.404;2022-11-25T05:13:32;3.53;;;0.60;;
69386;SDS011;56575;48.942;8.404;2022-11-25T05:15:58;5.60;;;0.70;;
69386;SDS011;56575;48.942;8.404;2022-11-25T05:18:24;2.65;;;0.82;;
69386;SDS011;56575;48.942;8.404;2022-11-25T05:20:49;3.97;;;0.70;;
69386;SDS011;56575;48.942;8.404;2022-11-25T05:23:14;2.07;;;0.70;;
69386;SDS011;56575;48.942;8.404;2022-11-25T05:25:40;2.63;;;0.90;;
69386;SDS011;56575;48.942;8.404;2022-11-25T05:28:05;2.70;;;0.60;;
69386;SDS011;56575;48.942;8.404;2022-11-25T05:30:30;3.90;;;1.03;;
69386;SDS011;56575;48.942;8.404;2022-11-25T05:32:56;2.97;;;0.83;;
69386;SDS011;56575;48.942;8.404;2022-11-25T05:35:21;3.73;;;0.80;;
69386;SDS011;56575;48.942;8.404;2022-11-25T05:37:46;4.10;;;0.67;;
69386;SDS011;56575;48.942;8.404;2022-11-25T05:40:12;3.95;;;0.70;;
69386;SDS011;56575;48.942;8.404;2022-11-25T05:42:37;3.80;;;0.70;;
69386;SDS011;56575;48.942;8.404;2022-11-25T05:45:03;6.27;;;1.23;;
69386;SDS011;56575;48.942;8.404;2022-11-25T05:47:29;3.75;;;0.70;;
69386;SDS011;56575;48.942;8.404;2022-11-25T05:49:55;3.00;;;0.83;;
69386;SDS011;56575;48.942;8.404;2022-11-25T05:52:20;2.33;;;0.80;;
69386;SDS011;56575;48.942;8.404;2022-11-25T05:54:45;3.13;;;1.30;;
69386;SDS011;56575;48.942;8.404;2022-11-25T05:57:11;4.67;;;1.50;;
69386;SDS011;56575;48.942;8.404;2022-11-25T05:59:36;4.33;;;1.30;;
69386;SDS011;56575;48.942;8.404;2022-11-25T06:02:01;7.70;;;3.43;;
69386;SDS011;56575;48.942;8.404;2022-11-25T06:04:27;6.47;;;2.67;;
69386;SDS011;56575;48.942;8.404;2022-11-25T06:06:52;6.63;;;2.70;;
69386;SDS011;56575;48.942;8.404;2022-11-25T06:09:17;7.57;;;2.00;;
69386;SDS011;56575;48.942;8.404;2022-11-25T06:11:43;6.77;;;2.27;;
69386;SDS011;56575;48.942;8.404;2022-11-25T06:14:08;3.77;;;1.20;;
69386;SDS011;56575;48.942;8.404;2022-11-25T06:16:34;4.57;;;2.70;;
69386;SDS011;56575;48.942;8.404;2022-11-25T06:19:00;3.87;;;0.80;;
69386;SDS011;56575;48.942;8.404;2022-11-25T06:21:29;2.38;;;1.00;;
69386;SDS011;56575;48.942;8.404;2022-11-25T06:23:55;4.13;;;0.90;;
69386;SDS011;56575;48.942;8.404;2022-11-25T06:26:20;8.00;;;0.97;;
69386;SDS011;56575;48.942;8.404;2022-11-25T06:28:47;20.80;;;11.55;;
69386;SDS011;56575;48.942;8.404;2022-11-25T06:31:18;4.33;;;1.83;;
69386;SDS011;56575;48.942;8.404;2022-11-25T06:33:45;3.97;;;1.23;;
69386;SDS011;56575;48.942;8.404;2022-11-25T06:36:11;5.60;;;2.50;;
69386;SDS011;56575;48.942;8.404;2022-11-25T06:38:41;7.55;;;3.28;;
69386;SDS011;56575;48.942;8.404;2022-11-25T06:41:08;6.38;;;2.78;;
69386;SDS011;56575;48.942;8.404;2022-11-25T06:43:33;4.23;;;2.87;;
69386;SDS011;56575;48.942;8.404;2022-11-25T06:46:05;4.80;;;3.70;;
69386;SDS011;56575;48.942;8.404;2022-11-25T06:48:32;6.88;;;4.50;;
69386;SDS011;56575;48.942;8.404;2022-11-25T06:51:00;8.23;;;2.33;;
69386;SDS011;56575;48.942;8.404;2022-11-25T06:53:27;3.35;;;0.90;;
69386;SDS011;56575;48.942;8.404;2022-11-25T06:56:13;2.50;;;0.70;;
69386;SDS011;56575;48.942;8.404;2022-11-25T06:58:44;3.95;;;0.70;;
69386;SDS011;56575;48.942;8.404;2022-11-25T07:01:17;2.37;;;0.80;;
69386;SDS011;56575;48.942;8.404;2022-11-25T07:03:47;4.57;;;1.13;;
69386;SDS011;56575;48.942;8.404;2022-11-25T07:06:15;3.08;;;1.30;;
69386;SDS011;56575;48.942;8.404;2022-11-25T07:08:42;3.47;;;1.58;;
69386;SDS011;56575;48.942;8.404;2022-11-25T07:11:09;4.43;;;1.87;;
69386;SDS011;56575;48.942;8.404;2022-11-25T07:13:40;5.78;;;1.73;;
69386;SDS011;56575;48.942;8.404;2022-11-25T07:16:05;5.70;;;1.50;;
69386;SDS011;56575;48.942;8.404;2022-11-25T07:18:32;6.90;;;2.10;;
69386;SDS011;56575;48.942;8.404;2022-11-25T07:21:09;7.80;;;5.75;;
69386;SDS011;56575;48.942;8.404;2022-11-25T07:23:37;15.18;;;12.68;;
69386;SDS011;56575;48.942;8.404;2022-11-25T07:26:07;12.90;;;8.90;;
69386;SDS011;56575;48.942;8.404;2022-11-25T07:28:34;6.83;;;4.07;;
69386;SDS011;56575;48.942;8.404;2022-11-25T07:33:54;6.93;;;2.35;;
69386;SDS011;56575;48.942;8.404;2022-11-25T07:36:27;4.15;;;1.70;;
69386;SDS011;56575;48.942;8.404;2022-11-25T07:38:54;4.50;;;1.63;;
69386;SDS011;56575;48.942;8.404;2022-11-25T07:41:22;6.13;;;1.70;;
69386;SDS011;56575;48.942;8.404;2022-11-25T07:43:50;4.47;;;1.85;;
69386;SDS011;56575;48.942;8.404;2022-11-25T07:46:19;3.88;;;1.38;;
69386;SDS011;56575;48.942;8.404;2022-11-25T07:48:45;5.03;;;1.23;;
69386;SDS011;56575;48.942;8.404;2022-11-25T07:53:44;3.72;;;1.20;;
69386;SDS011;56575;48.942;8.404;2022-11-25T07:56:11;9.48;;;2.17;;
69386;SDS011;56575;48.942;8.404;2022-11-25T07:58:37;8.75;;;2.92;;
69386;SDS011;56575;48.942;8.404;2022-11-25T08:01:03;9.33;;;3.10;;
69386;SDS011;56575;48.942;8.404;2022-11-25T08:03:30;8.77;;;3.10;;
69386;SDS011;56575;48.942;8.404;2022-11-25T08:06:00;11.18;;;3.42;;
69386;SDS011;56575;48.942;8.404;2022-11-25T08:08:29;7.70;;;2.47;;
69386;SDS011;56575;48.942;8.404;2022-11-25T08:10:55;7.25;;;3.20;;
69386;SDS011;56575;48.942;8.404;2022-11-25T08:13:20;7.10;;;2.27;;
69386;SDS011;56575;48.942;8.404;2022-11-25T08:15:46;4.17;;;2.10;;
69386;SDS011;56575;48.942;8.404;2022-11-25T08:18:11;6.65;;;2.30;;
69386;SDS011;56575;48.942;8.404;2022-11-25T08:20:37;8.57;;;2.13;;
69386;SDS011;56575;48.942;8.404;2022-11-25T08:23:02;7.53;;;3.40;;
69386;SDS011;56575;48.942;8.404;2022-11-25T08:25:27;7.33;;;2.53;;
69386;SDS011;56575;48.942;8.404;2022-11-25T08:27:55;7.38;;;3.20;;
69386;SDS011;56575;48.942;8.404;2022-11-25T08:30:23;8.38;;;3.95;;
69386;SDS011;56575;48.942;8.404;2022-11-25T08:32:50;7.00;;;2.90;;
69386;SDS011;56575;48.942;8.404;2022-11-25T08:35:16;4.93;;;2.80;;
69386;SDS011;56575;48.942;8.404;2022-11-25T08:37:41;8.77;;;3.92;;
69386;SDS011;56575;48.942;8.404;2022-11-25T08:40:07;5.47;;;2.33;;
69386;SDS011;56575;48.942;8.404;2022-11-25T08:42:34;6.20;;;1.73;;
69386;SDS011;56575;48.942;8.404;2022-11-25T08:44:59;5.07;;;1.90;;
69386;SDS011;56575;48.942;8.404;2022-11-25T08:47:25;7.45;;;2.13;;
69386;SDS011;56575;48.942;8.404;2022-11-25T08:49:51;6.03;;;1.90;;
69386;SDS011;56575;48.942;8.404;2022-11-25T08:52:18;5.47;;;1.90;;
69386;SDS011;56575;48.942;8.404;2022-11-25T08:54:45;6.72;;;2.00;;
69386;SDS011;56575;48.942;8.404;2022-11-25T08:57:10;4.18;;;1.40;;
69386;SDS011;56575;48.942;8.404;2022-11-25T08:59:36;5.37;;;1.50;;
69386;SDS011;56575;48.942;8.404;2022-11-25T09:02:03;4.88;;;1.75;;
69386;SDS011;56575;48.942;8.404;2022-11-25T09:04:29;6.63;;;1.77;;
69386;SDS011;56575;48.942;8.404;2022-11-25T09:06:55;4.88;;;1.98;;
69386;SDS011;56575;48.942;8.404;2022-11-25T09:09:21;4.87;;;2.03;;
69386;SDS011;56575;48.942;8.404;2022-11-25T09:11:46;5.47;;;1.70;;
69386;SDS011;56575;48.942;8.404;2022-11-25T09:14:12;7.03;;;2.50;;
69386;SDS011;56575;48.942;8.404;2022-11-25T09:16:38;5.13;;;1.90;;
69386;SDS011;56575;48.942;8.404;2022-11-25T09:19:03;4.23;;;1.83;;
69386;SDS011;56575;48.942;8.404;2022-11-25T09:21:30;4.68;;;1.77;;
69386;SDS011;56575;48.942;8.404;2022-11-25T09:23:55;7.73;;;2.63;;
69386;SDS011;56575;48.942;8.404;2022-11-25T09:26:22;7.13;;;2.63;;
69386;SDS011;56575;48.942;8.404;2022-11-25T09:28:49;10.25;;;3.10;;
69386;SDS011;56575;48.942;8.404;2022-11-25T09:31:14;8.00;;;2.90;;
69386;SDS011;56575;48.942;8.404;2022-11-25T09:33:40;7.87;;;2.33;;
69386;SDS011;56575;48.942;8.404;2022-11-25T09:36:06;6.07;;;2.87;;
69386;SDS011;56575;48.942;8.404;2022-11-25T09:38:31;7.60;;;3.07;;
69386;SDS011;56575;48.942;8.404;2022-11-25T09:44:17;7.47;;;2.63;;
69386;SDS011;56575;48.942;8.404;2022-11-25T09:47:16;5.75;;;2.70;;
69386;SDS011;56575;48.942;8.404;2022-11-25T09:55:08;7.10;;;3.07;;
69386;SDS011;56575;48.942;8.404;2022-11-25T09:57:47;7.50;;;3.30;;
69386;SDS011;56575;48.942;8.404;2022-11-25T10:00:18;7.68;;;3.20;;
69386;SDS011;56575;48.942;8.404;2022-11-25T10:02:48;7.45;;;4.03;;
69386;SDS011;56575;48.942;8.404;2022-11-25T10:05:20;6.68;;;3.30;;
69386;SDS011;56575;48.942;8.404;2022-11-25T10:07:53;5.83;;;3.20;;
69386;SDS011;56575;48.942;8.404;2022-11-25T10:10:26;9.35;;;3.72;;
69386;SDS011;56575;48.942;8.404;2022-11-25T10:12:54;10.27;;;3.88;;
69386;SDS011;56575;48.942;8.404;2022-11-25T10:15:39;9.80;;;4.55;;
69386;SDS011;56575;48.942;8.404;2022-11-25T10:18:29;8.38;;;3.90;;
69386;SDS011;56575;48.942;8.404;2022-11-25T10:21:02;9.70;;;3.93;;
69386;SDS011;56575;48.942;8.404;2022-11-25T10:23:34;9.85;;;4.10;;
69386;SDS011;56575;48.942;8.404;2022-11-25T10:26:01;8.25;;;4.03;;
69386;SDS011;56575;48.942;8.404;2022-11-25T10:31:34;10.57;;;4.50;;
69386;SDS011;56575;48.942;8.404;2022-11-25T10:34:00;8.83;;;4.63;;
69386;SDS011;56575;48.942;8.404;2022-11-25T10:36:30;9.85;;;5.03;;
69386;SDS011;56575;48.942;8.404;2022-11-25T10:39:19;11.32;;;4.70;;
69386;SDS011;56575;48.942;8.404;2022-11-25T10:41:57;12.63;;;4.75;;
69386;SDS011;56575;48.942;8.404;2022-11-25T10:52:43;8.63;;;4.50;;
69386;SDS011;56575;48.942;8.404;2022-11-25T10:55:15;9.20;;;4.90;;
69386;SDS011;56575;48.942;8.404;2022-11-25T10:57:43;14.50;;;4.90;;
69386;SDS011;56575;48.942;8.404;2022-11-25T11:00:28;11.20;;;4.87;;
69386;SDS011;56575;48.942;8.404;2022-11-25T11:02:59;10.00;;;4.55;;
69386;SDS011;56575;48.942;8.404;2022-11-25T11:05:42;8.70;;;4.63;;
69386;SDS011;56575;48.942;8.404;2022-11-25T11:08:15;10.00;;;5.13;;
69386;SDS011;56575;48.942;8.404;2022-11-25T11:10:41;8.07;;;4.72;;
69386;SDS011;56575;48.942;8.404;2022-11-25T11:15:45;11.90;;;5.28;;
69386;SDS011;56575;48.942;8.404;2022-11-25T11:21:01;10.52;;;5.13;;
69386;SDS011;56575;48.942;8.404;2022-11-25T11:23:29;11.83;;;5.40;;
69386;SDS011;56575;48.942;8.404;2022-11-25T11:28:28;15.43;;;5.80;;
69386;SDS011;56575;48.942;8.404;2022-11-25T11:31:01;12.13;;;5.82;;
69386;SDS011;56575;48.942;8.404;2022-11-25T11:38:55;10.50;;;5.03;;
69386;SDS011;56575;48.942;8.404;2022-11-25T11:47:13;12.70;;;5.13;;
69386;SDS011;56575;48.942;8.404;2022-11-25T11:52:37;12.25;;;4.20;;
69386;SDS011;56575;48.942;8.404;2022-11-25T11:57:53;14.60;;;3.80;;
69386;SDS011;56575;48.942;8.404;2022-11-25T12:00:23;10.83;;;4.03;;
69386;SDS011;56575;48.942;8.404;2022-11-25T12:03:03;10.57;;;3.65;;
69386;SDS011;56575;48.942;8.404;2022-11-25T12:05:37;12.25;;;3.90;;
69386;SDS011;56575;48.942;8.404;2022-11-25T12:08:12;10.93;;;3.42;;
69386;SDS011;56575;48.942;8.404;2022-11-25T12:10:44;7.95;;;3.50;;
69386;SDS011;56575;48.942;8.404;2022-11-25T12:13:30;7.57;;;3.07;;
69386;SDS011;56575;48.942;8.404;2022-11-25T12:18:43;7.95;;;3.10;;
69386;SDS011;56575;48.942;8.404;2022-11-25T12:24:13;11.20;;;3.20;;
69386;SDS011;56575;48.942;8.404;2022-11-25T12:27:05;6.87;;;2.90;;
69386;SDS011;56575;48.942;8.404;2022-11-25T12:29:52;8.80;;;2.92;;
69386;SDS011;56575;48.942;8.404;2022-11-25T12:43:07;12.38;;;3.47;;
69386;SDS011;56575;48.942;8.404;2022-11-25T12:45:41;9.38;;;3.30;;
69386;SDS011;56575;48.942;8.404;2022-11-25T12:48:13;8.93;;;3.10;;
69386;SDS011;56575;48.942;8.404;2022-11-25T12:50:46;6.23;;;2.90;;
69386;SDS011;56575;48.942;8.404;2022-11-25T12:53:46;11.25;;;3.20;;
69386;SDS011;56575;48.942;8.404;2022-11-25T12:59:35;10.67;;;3.00;;
69386;SDS011;56575;48.942;8.404;2022-11-25T13:05:21;8.13;;;3.40;;
69386;SDS011;56575;48.942;8.404;2022-11-25T13:08:01;10.77;;;3.20;;
69386;SDS011;56575;48.942;8.404;2022-11-25T13:14:12;7.97;;;3.13;;
69386;SDS011;56575;48.942;8.404;2022-11-25T13:17:02;9.25;;;2.95;;
69386;SDS011;56575;48.942;8.404;2022-11-25T13:19:28;7.35;;;2.80;;
69386;SDS011;56575;48.942;8.404;2022-11-25T13:22:12;9.47;;;2.77;;
69386;SDS011;56575;48.942;8.404;2022-11-25T13:24:54;10.07;;;2.88;;
69386;SDS011;56575;48.942;8.404;2022-11-25T13:30:04;8.68;;;2.90;;
69386;SDS011;56575;48.942;8.404;2022-11-25T13:32:50;8.52;;;3.10;;
69386;SDS011;56575;48.942;8.404;2022-11-25T13:37:56;8.07;;;3.47;;
69386;SDS011;56575;48.942;8.404;2022-11-25T13:43:20;7.57;;;2.80;;
69386;SDS011;56575;48.942;8.404;2022-11-25T13:45:49;7.25;;;2.70;;
69386;SDS011;56575;48.942;8.404;2022-11-25T13:48:22;6.05;;;2.35;;
69386;SDS011;56575;48.942;8.404;2022-11-25T13:53:56;9.30;;;2.30;;
69386;SDS011;56575;48.942;8.404;2022-11-25T13:56:28;6.85;;;2.75;;
69386;SDS011;56575;48.942;8.404;2022-11-25T13:59:17;6.28;;;2.03;;
69386;SDS011;56575;48.942;8.404;2022-11-25T14:04:09;7.47;;;2.10;;
69386;SDS011;56575;48.942;8.404;2022-11-25T14:12:26;7.70;;;2.15;;
69386;SDS011;56575;48.942;8.404;2022-11-25T14:30:53;9.83;;;2.10;;
69386;SDS011;56575;48.942;8.404;2022-11-25T14:33:29;7.53;;;2.13;;
69386;SDS011;56575;48.942;8.404;2022-11-25T14:36:17;8.07;;;2.20;;
69386;SDS011;56575;48.942;8.404;2022-11-25T14:38:53;9.40;;;2.10;;
69386;SDS011;56575;48.942;8.404;2022-11-25T14:41:29;8.85;;;2.10;;
69386;SDS011;56575;48.942;8.404;2022-11-25T14:44:03;8.03;;;2.33;;
69386;SDS011;56575;48.942;8.404;2022-11-25T14:46:31;10.60;;;2.47;;
69386;SDS011;56575;48.942;8.404;2022-11-25T14:48:57;8.10;;;2.40;;
69386;SDS011;56575;48.942;8.404;2022-11-25T14:51:26;6.97;;;2.30;;
69386;SDS011;56575;48.942;8.404;2022-11-25T14:53:57;9.20;;;2.30;;
69386;SDS011;56575;48.942;8.404;2022-11-25T14:56:30;9.48;;;2.50;;
69386;SDS011;56575;48.942;8.404;2022-11-25T14:58:58;12.50;;;2.30;;
69386;SDS011;56575;48.942;8.404;2022-11-25T15:01:26;9.30;;;2.72;;
69386;SDS011;56575;48.942;8.404;2022-11-25T15:06:38;10.48;;;2.22;;
69386;SDS011;56575;48.942;8.404;2022-11-25T15:11:44;11.03;;;2.70;;
69386;SDS011;56575;48.942;8.404;2022-11-25T15:14:10;9.13;;;2.60;;
69386;SDS011;56575;48.942;8.404;2022-11-25T15:16:42;9.75;;;2.83;;
69386;SDS011;56575;48.942;8.404;2022-11-25T15:19:17;8.83;;;2.27;;
69386;SDS011;56575;48.942;8.404;2022-11-25T15:21:45;7.25;;;2.60;;
69386;SDS011;56575;48.942;8.404;2022-11-25T15:24:40;13.60;;;3.03;;
69386;SDS011;56575;48.942;8.404;2022-11-25T15:27:18;8.83;;;2.20;;
69386;SDS011;56575;48.942;8.404;2022-11-25T15:29:48;7.35;;;2.20;;
69386;SDS011;56575;48.942;8.404;2022-11-25T15:32:15;11.48;;;2.40;;
69386;SDS011;56575;48.942;8.404;2022-11-25T15:34:44;8.07;;;2.70;;
69386;SDS011;56575;48.942;8.404;2022-11-25T15:37:11;13.32;;;3.03;;
69386;SDS011;56575;48.942;8.404;2022-11-25T15:39:37;9.02;;;2.90;;
69386;SDS011;56575;48.942;8.404;2022-11-25T15:42:06;9.30;;;2.93;;
69386;SDS011;56575;48.942;8.404;2022-11-25T15:44:55;8.37;;;2.83;;
69386;SDS011;56575;48.942;8.404;2022-11-25T15:47:26;7.90;;;2.97;;
69386;SDS011;56575;48.942;8.404;2022-11-25T15:52:36;10.75;;;3.03;;
69386;SDS011;56575;48.942;8.404;2022-11-25T15:55:15;10.60;;;3.03;;
69386;SDS011;56575;48.942;8.404;2022-11-25T15:57:47;11.30;;;4.50;;
69386;SDS011;56575;48.942;8.404;2022-11-25T16:00:15;21.80;;;18.63;;
69386;SDS011;56575;48.942;8.404;2022-11-25T16:10:49;10.05;;;4.82;;
69386;SDS011;56575;48.942;8.404;2022-11-25T16:18:19;11.02;;;3.50;;
69386;SDS011;56575;48.942;8.404;2022-11-25T16:20:54;11.70;;;3.40;;
69386;SDS011;56575;48.942;8.404;2022-11-25T16:23:23;11.32;;;3.88;;
69386;SDS011;56575;48.942;8.404;2022-11-25T16:25:49;11.00;;;4.37;;
69386;SDS011;56575;48.942;8.404;2022-11-25T16:28:21;9.02;;;4.15;;
69386;SDS011;56575;48.942;8.404;2022-11-25T16:30:48;13.15;;;4.35;;
69386;SDS011;56575;48.942;8.404;2022-11-25T16:33:15;9.20;;;4.18;;
69386;SDS011;56575;48.942;8.404;2022-11-25T16:35:40;11.93;;;4.80;;
69386;SDS011;56575;48.942;8.404;2022-11-25T16:38:06;13.57;;;4.72;;
69386;SDS011;56575;48.942;8.404;2022-11-25T16:40:34;11.03;;;4.73;;
69386;SDS011;56575;48.942;8.404;2022-11-25T16:43:02;11.65;;;4.50;;
69386;SDS011;56575;48.942;8.404;2022-11-25T16:45:27;13.73;;;5.27;;
69386;SDS011;56575;48.942;8.404;2022-11-25T16:47:53;15.60;;;5.75;;
69386;SDS011;56575;48.942;8.404;2022-11-25T16:50:19;9.68;;;4.97;;
69386;SDS011;56575;48.942;8.404;2022-11-25T16:52:45;10.00;;;5.00;;
69386;SDS011;56575;48.942;8.404;2022-11-25T16:55:11;12.95;;;5.95;;
69386;SDS011;56575;48.942;8.404;2022-11-25T16:57:37;14.73;;;6.60;;
69386;SDS011;56575;48.942;8.404;2022-11-25T17:00:06;16.17;;;8.52;;
69386;SDS011;56575;48.942;8.404;2022-11-25T17:02:36;16.83;;;7.85;;
69386;SDS011;56575;48.942;8.404;2022-11-25T17:05:15;20.80;;;7.63;;
69386;SDS011;56575;48.942;8.404;2022-11-25T17:07:42;16.67;;;7.20;;
69386;SDS011;56575;48.942;8.404;2022-11-25T17:10:09;13.82;;;6.68;;